createdAt,value
2022-09-15T00:00:30.039Z,1
2022-09-15T00:02:13.734Z,1
2022-09-15T00:03:57.452Z,0
2022-09-15T00:05:41.141Z,0
2022-09-15T00:07:24.850Z,1
2022-09-15T00:09:08.557Z,1
2022-09-15T00:10:52.248Z,1
2022-09-15T00:12:35.972Z,0
2022-09-15T00:14:19.647Z,1
2022-09-15T00:16:03.353Z,1
2022-09-15T00:17:47.043Z,0
2022-09-15T00:19:30.760Z,1
2022-09-15T00:21:14.455Z,1
2022-09-15T00:22:58.155Z,0
2022-09-15T00:24:41.861Z,1
2022-09-15T00:26:25.581Z,0
2022-09-15T00:28:09.261Z,1
2022-09-15T00:29:52.967Z,1
2022-09-15T00:31:36.664Z,1
2022-09-15T00:33:20.369Z,0
2022-09-15T00:35:04.065Z,0
2022-09-15T00:36:47.760Z,0
2022-09-15T00:38:31.460Z,1
2022-09-15T00:40:15.174Z,1
2022-09-15T00:41:58.864Z,0
2022-09-15T00:43:42.572Z,1
2022-09-15T00:45:26.269Z,1
2022-09-15T00:47:09.979Z,0
2022-09-15T00:48:53.679Z,1
2022-09-15T00:50:37.372Z,0
2022-09-15T00:52:21.077Z,0
2022-09-15T00:54:04.780Z,1
2022-09-15T00:55:48.472Z,1
2022-09-15T00:57:32.181Z,1
2022-09-15T00:59:15.966Z,1
2022-09-15T01:00:59.577Z,0
2022-09-15T01:02:43.285Z,0
2022-09-15T01:04:26.986Z,1
2022-09-15T01:06:10.690Z,1
2022-09-15T01:07:54.390Z,0
2022-09-15T01:09:38.083Z,1
2022-09-15T01:11:21.785Z,0
2022-09-15T01:13:05.506Z,0
2022-09-15T01:14:49.189Z,0
2022-09-15T01:16:32.896Z,1
2022-09-15T01:18:16.601Z,1
2022-09-15T01:20:00.288Z,1
2022-09-15T01:21:44.001Z,1
2022-09-15T01:23:27.691Z,0
2022-09-15T01:25:11.395Z,1
2022-09-15T01:26:55.114Z,1
2022-09-15T01:28:38.801Z,1
2022-09-15T01:30:22.515Z,0
2022-09-15T01:32:06.202Z,2
2022-09-15T01:33:49.901Z,1
2022-09-15T01:35:33.627Z,0
2022-09-15T01:37:17.302Z,1
2022-09-15T01:39:01.034Z,1
2022-09-15T01:40:44.719Z,1
2022-09-15T01:42:28.409Z,1
2022-09-15T01:44:12.117Z,1
2022-09-15T01:45:55.813Z,1
2022-09-15T01:47:39.504Z,1
2022-09-15T01:49:23.243Z,0
2022-09-15T01:51:06.915Z,1
2022-09-15T01:52:50.633Z,0
2022-09-15T01:54:34.319Z,0
2022-09-15T01:56:18.024Z,1
2022-09-15T01:58:01.720Z,1
2022-09-15T01:59:45.426Z,0
2022-09-15T02:01:29.197Z,1
2022-09-15T02:03:12.826Z,0
2022-09-15T02:04:56.539Z,1
2022-09-15T02:06:40.224Z,1
2022-09-15T02:08:23.926Z,1
2022-09-15T02:10:07.639Z,0
2022-09-15T02:11:51.340Z,1
2022-09-15T02:13:35.024Z,1
2022-09-15T02:15:18.738Z,0
2022-09-15T02:17:02.433Z,1
2022-09-15T02:18:46.132Z,1
2022-09-15T02:20:29.851Z,1
2022-09-15T02:22:13.540Z,0
2022-09-15T02:23:57.239Z,1
2022-09-15T02:25:40.937Z,1
2022-09-15T02:27:24.640Z,0
2022-09-15T02:29:08.344Z,0
2022-09-15T02:30:52.033Z,1
2022-09-15T02:32:35.742Z,0
2022-09-15T02:34:19.449Z,0
2022-09-15T02:36:03.242Z,0
2022-09-15T02:37:46.855Z,1
2022-09-15T02:39:30.555Z,0
2022-09-15T02:41:14.245Z,1
2022-09-15T02:42:57.949Z,1
2022-09-15T02:44:41.657Z,1
2022-09-15T02:46:25.359Z,1
2022-09-15T02:48:09.067Z,0
2022-09-15T02:49:52.763Z,1
2022-09-15T02:51:36.456Z,0
2022-09-15T02:53:20.161Z,1
2022-09-15T02:55:03.866Z,0
2022-09-15T02:56:47.563Z,0
2022-09-15T02:58:31.348Z,1
2022-09-15T03:00:14.966Z,1
2022-09-15T03:01:58.672Z,1
2022-09-15T03:03:42.367Z,0
2022-09-15T03:05:26.106Z,1
2022-09-15T03:07:09.808Z,0
2022-09-15T03:08:53.465Z,1
2022-09-15T03:10:37.193Z,1
2022-09-15T03:12:20.882Z,0
2022-09-15T03:14:04.580Z,1
2022-09-15T03:15:48.279Z,1
2022-09-15T03:17:32.001Z,1
2022-09-15T03:19:15.683Z,1
2022-09-15T03:20:59.401Z,1
2022-09-15T03:22:43.087Z,0
2022-09-15T03:24:26.791Z,0
2022-09-15T03:26:10.493Z,1
2022-09-15T03:27:54.189Z,1
2022-09-15T03:29:37.894Z,2
2022-09-15T03:31:21.617Z,0
2022-09-15T03:33:05.296Z,1
2022-09-15T03:34:48.996Z,1
2022-09-15T03:36:32.721Z,1
2022-09-15T03:38:16.413Z,1
2022-09-15T03:41:43.804Z,1
2022-09-15T03:43:27.510Z,1
2022-09-15T03:45:11.215Z,1
2022-09-15T03:46:54.913Z,1
2022-09-15T03:48:38.614Z,1
2022-09-15T03:50:22.319Z,1
2022-09-15T03:52:06.013Z,1
2022-09-15T03:53:49.718Z,1
2022-09-15T03:55:33.417Z,0
2022-09-15T03:57:17.126Z,1
2022-09-15T03:59:00.828Z,0
2022-09-15T04:00:44.528Z,0
2022-09-15T04:02:28.238Z,1
2022-09-15T04:04:11.938Z,1
2022-09-15T04:05:55.645Z,1
2022-09-15T04:07:39.350Z,0
2022-09-15T04:09:23.078Z,1
2022-09-15T04:11:06.734Z,0
2022-09-15T04:12:50.436Z,1
2022-09-15T04:14:34.155Z,1
2022-09-15T04:16:17.838Z,1
2022-09-15T04:18:01.546Z,1
2022-09-15T04:19:45.243Z,1
2022-09-15T04:21:28.939Z,1
2022-09-15T04:23:12.644Z,1
2022-09-15T04:24:56.358Z,1
2022-09-15T04:26:40.050Z,1
2022-09-15T04:28:23.799Z,1
2022-09-15T04:30:07.471Z,1
2022-09-15T04:31:51.152Z,0
2022-09-15T04:33:34.853Z,0
2022-09-15T04:35:18.593Z,1
2022-09-15T04:37:02.272Z,1
2022-09-15T04:38:45.954Z,1
2022-09-15T04:40:29.658Z,2
2022-09-15T04:42:13.361Z,2
2022-09-15T04:43:57.073Z,3
2022-09-15T04:45:40.760Z,3
2022-09-15T04:47:24.463Z,5
2022-09-15T04:49:08.161Z,5
2022-09-15T04:50:51.866Z,6
2022-09-15T04:52:35.568Z,7
2022-09-15T04:54:19.267Z,8
2022-09-15T04:56:02.979Z,10
2022-09-15T04:57:46.672Z,13
2022-09-15T04:59:30.379Z,15
2022-09-15T05:01:14.077Z,16
2022-09-15T05:02:57.776Z,20
2022-09-15T05:04:41.477Z,24
2022-09-15T05:06:25.198Z,27
2022-09-15T05:08:08.883Z,30
2022-09-15T05:09:52.586Z,32
2022-09-15T05:11:36.298Z,34
2022-09-15T05:13:19.987Z,36
2022-09-15T05:15:03.696Z,40
2022-09-15T05:16:47.414Z,48
2022-09-15T05:18:31.096Z,59
2022-09-15T05:20:14.832Z,64
2022-09-15T05:21:58.491Z,68
2022-09-15T05:23:42.195Z,75
2022-09-15T05:25:25.921Z,82
2022-09-15T05:27:09.602Z,87
2022-09-15T05:28:53.309Z,88
2022-09-15T05:30:37.000Z,89
2022-09-15T05:32:20.715Z,90
2022-09-15T05:34:04.459Z,92
2022-09-15T05:35:48.109Z,96
2022-09-15T05:37:31.831Z,103
2022-09-15T05:39:15.631Z,108
2022-09-15T05:40:59.238Z,114
2022-09-15T05:42:42.913Z,121
2022-09-15T05:44:26.626Z,128
2022-09-15T05:46:10.319Z,126
2022-09-15T05:47:54.023Z,119
2022-09-15T05:49:37.765Z,117
2022-09-15T05:51:21.444Z,119
2022-09-15T05:53:05.130Z,122
2022-09-15T05:54:48.898Z,136
2022-09-15T05:56:32.538Z,156
2022-09-15T05:58:16.236Z,181
2022-09-15T05:59:59.962Z,208
2022-09-15T06:01:43.632Z,219
2022-09-15T06:03:27.330Z,224
2022-09-15T06:05:11.032Z,221
2022-09-15T06:06:54.738Z,215
2022-09-15T06:08:38.453Z,213
2022-09-15T06:10:22.134Z,226
2022-09-15T06:12:05.841Z,228
2022-09-15T06:13:49.527Z,226
2022-09-15T06:15:33.249Z,231
2022-09-15T06:17:16.945Z,225
2022-09-15T06:19:00.682Z,215
2022-09-15T06:20:44.338Z,208
2022-09-15T06:22:28.043Z,202
2022-09-15T06:24:11.747Z,202
2022-09-15T06:25:55.452Z,210
2022-09-15T06:27:39.149Z,220
2022-09-15T06:29:22.849Z,233
2022-09-15T06:31:06.582Z,256
2022-09-15T06:32:50.253Z,264
2022-09-15T06:34:33.953Z,276
2022-09-15T06:36:17.669Z,283
2022-09-15T06:38:01.351Z,301
2022-09-15T06:39:45.060Z,332
2022-09-15T06:41:28.779Z,346
2022-09-15T06:43:12.456Z,344
2022-09-15T06:44:56.167Z,316
2022-09-15T06:46:39.858Z,289
2022-09-15T06:48:23.562Z,273
2022-09-15T06:50:07.266Z,259
2022-09-15T06:51:50.962Z,238
2022-09-15T06:53:34.665Z,221
2022-09-15T06:55:18.372Z,216
2022-09-15T06:57:02.074Z,220
2022-09-15T06:58:45.776Z,236
2022-09-15T07:00:29.473Z,285
2022-09-15T07:02:13.176Z,320
2022-09-15T07:03:56.887Z,341
2022-09-15T07:05:40.642Z,340
2022-09-15T07:07:24.353Z,311
2022-09-15T07:09:07.990Z,281
2022-09-15T07:10:51.717Z,270
2022-09-15T07:12:35.380Z,272
2022-09-15T07:14:19.078Z,279
2022-09-15T07:16:02.807Z,300
2022-09-15T07:17:46.489Z,325
2022-09-15T07:19:30.182Z,357
2022-09-15T07:21:13.890Z,401
2022-09-15T07:22:57.592Z,435
2022-09-15T07:24:41.298Z,463
2022-09-15T07:26:24.997Z,481
2022-09-15T07:28:08.702Z,483
2022-09-15T07:29:52.413Z,474
2022-09-15T07:31:36.094Z,456
2022-09-15T07:33:19.798Z,443
2022-09-15T07:35:03.499Z,431
2022-09-15T07:36:47.212Z,414
2022-09-15T07:38:30.903Z,391
2022-09-15T07:40:14.616Z,370
2022-09-15T07:41:58.308Z,347
2022-09-15T07:43:42.005Z,324
2022-09-15T07:45:25.706Z,317
2022-09-15T07:47:09.417Z,318
2022-09-15T07:48:53.154Z,321
2022-09-15T07:50:36.815Z,317
2022-09-15T07:52:20.510Z,315
2022-09-15T07:54:04.216Z,320
2022-09-15T07:55:47.923Z,332
2022-09-15T07:57:31.617Z,331
2022-09-15T07:59:15.316Z,325
2022-09-15T08:00:59.063Z,322
2022-09-15T08:02:42.719Z,313
2022-09-15T08:04:26.424Z,329
2022-09-15T08:06:10.129Z,333
2022-09-15T08:07:53.874Z,337
2022-09-15T08:09:37.534Z,344
2022-09-15T08:11:21.226Z,351
2022-09-15T08:13:04.933Z,361
2022-09-15T08:14:48.652Z,372
2022-09-15T08:16:32.342Z,374
2022-09-15T08:18:16.040Z,373
2022-09-15T08:19:59.739Z,379
2022-09-15T08:21:43.449Z,389
2022-09-15T08:23:27.142Z,404
2022-09-15T08:25:10.839Z,429
2022-09-15T08:26:54.541Z,467
2022-09-15T08:28:38.244Z,514
2022-09-15T08:30:21.953Z,572
2022-09-15T08:32:05.683Z,637
2022-09-15T08:33:49.351Z,710
2022-09-15T08:35:33.065Z,745
2022-09-15T08:37:16.761Z,745
2022-09-15T08:39:00.456Z,744
2022-09-15T08:40:44.156Z,744
2022-09-15T08:42:27.864Z,744
2022-09-15T08:44:11.648Z,744
2022-09-15T08:45:55.272Z,744
2022-09-15T08:47:39.054Z,736
2022-09-15T08:49:22.660Z,745
2022-09-15T08:51:06.363Z,744
2022-09-15T08:52:50.061Z,745
2022-09-15T08:54:33.765Z,745
2022-09-15T08:56:17.536Z,744
2022-09-15T08:58:01.185Z,744
2022-09-15T08:59:44.868Z,745
2022-09-15T09:01:28.671Z,744
2022-09-15T09:03:12.272Z,745
2022-09-15T09:04:55.977Z,745
2022-09-15T09:06:39.711Z,744
2022-09-15T09:08:23.370Z,745
2022-09-15T09:10:07.075Z,744
2022-09-15T09:11:50.806Z,744
2022-09-15T09:13:34.495Z,745
2022-09-15T09:15:18.247Z,744
2022-09-15T09:20:29.282Z,738
2022-09-15T09:22:13.011Z,744
2022-09-15T09:23:56.729Z,744
2022-09-15T09:25:40.465Z,745
2022-09-15T09:27:24.148Z,744
2022-09-15T09:32:35.199Z,745
2022-09-15T09:34:19.019Z,745
2022-09-15T09:36:09.594Z,714
2022-09-15T09:37:46.326Z,623
2022-09-15T09:39:30.077Z,521
2022-09-15T09:41:13.738Z,456
2022-09-15T09:42:57.485Z,443
2022-09-15T09:44:41.212Z,480
2022-09-15T09:46:24.923Z,428
2022-09-15T09:49:52.266Z,517
2022-09-15T09:51:36.034Z,647
2022-09-15T09:53:19.641Z,745
2022-09-15T09:55:03.393Z,744
2022-09-15T09:56:47.016Z,744
2022-09-15T09:58:30.814Z,736
2022-09-15T10:00:14.419Z,744
2022-09-15T10:01:58.227Z,744
2022-09-15T10:03:41.874Z,745
2022-09-15T10:05:25.555Z,744
2022-09-15T10:07:09.293Z,744
2022-09-15T10:08:52.924Z,744
2022-09-15T10:10:36.671Z,648
2022-09-15T10:12:20.509Z,560
2022-09-15T10:14:04.066Z,511
2022-09-15T10:15:47.791Z,638
2022-09-15T10:17:31.494Z,598
2022-09-15T10:19:15.270Z,431
2022-09-15T10:20:58.934Z,324
2022-09-15T10:22:42.535Z,355
2022-09-15T10:24:26.246Z,402
2022-09-15T10:26:09.942Z,549
2022-09-15T10:27:53.633Z,594
2022-09-15T10:29:37.388Z,488
2022-09-15T10:31:21.177Z,366
2022-09-15T10:33:04.742Z,319
2022-09-15T10:34:48.513Z,366
2022-09-15T10:36:32.217Z,409
2022-09-15T10:38:15.851Z,400
2022-09-15T10:39:59.570Z,434
2022-09-15T10:41:43.278Z,454
2022-09-15T10:43:27.023Z,424
2022-09-15T10:45:10.657Z,387
2022-09-15T10:46:54.418Z,343
2022-09-15T10:48:38.074Z,326
2022-09-15T10:50:21.807Z,379
2022-09-15T10:52:05.535Z,449
2022-09-15T10:53:49.167Z,488
2022-09-15T10:55:32.931Z,557
2022-09-15T10:57:16.719Z,607
2022-09-15T10:59:00.387Z,583
2022-09-15T11:00:43.966Z,561
2022-09-15T11:02:27.708Z,511
2022-09-15T11:04:11.374Z,471
2022-09-15T11:05:55.111Z,422
2022-09-15T11:07:38.767Z,357
2022-09-15T11:09:22.533Z,297
2022-09-15T11:12:49.919Z,596
2022-09-15T11:14:33.703Z,684
2022-09-15T11:16:17.369Z,613
2022-09-15T11:18:00.980Z,610
2022-09-15T11:19:44.681Z,634
2022-09-15T11:21:28.382Z,640
2022-09-15T11:23:12.087Z,616
2022-09-15T11:24:55.830Z,598
2022-09-15T11:26:39.507Z,586
2022-09-15T11:28:23.247Z,572
2022-09-15T11:30:06.923Z,531
2022-09-15T11:31:50.591Z,504
2022-09-15T11:33:34.325Z,466
2022-09-15T11:35:18.063Z,458
2022-09-15T11:37:01.786Z,471
2022-09-15T11:38:45.432Z,545
2022-09-15T11:40:29.102Z,740
2022-09-15T11:42:12.805Z,744
2022-09-15T11:43:56.589Z,744
2022-09-15T11:45:40.223Z,744
2022-09-15T11:47:23.900Z,743
2022-09-15T11:49:07.604Z,744
2022-09-15T11:50:51.303Z,708
2022-09-15T11:52:35.009Z,577
2022-09-15T11:54:18.711Z,505
2022-09-15T11:56:02.412Z,447
2022-09-15T11:57:46.104Z,396
2022-09-15T12:01:13.530Z,378
2022-09-15T12:02:57.218Z,363
2022-09-15T12:04:40.912Z,360
2022-09-15T12:06:24.703Z,357
2022-09-15T12:08:08.346Z,374
2022-09-15T12:09:52.063Z,430
2022-09-15T12:11:35.895Z,454
2022-09-15T12:13:19.558Z,403
2022-09-15T12:15:03.241Z,400
2022-09-15T12:16:46.877Z,410
2022-09-15T12:18:30.555Z,352
2022-09-15T12:20:14.281Z,340
2022-09-15T12:21:57.951Z,379
2022-09-15T12:23:41.626Z,521
2022-09-15T12:25:25.359Z,605
2022-09-15T12:27:09.038Z,744
2022-09-15T12:28:52.867Z,743
2022-09-15T12:30:36.430Z,744
2022-09-15T12:32:20.254Z,737
2022-09-15T12:34:03.910Z,606
2022-09-15T12:35:47.588Z,504
2022-09-15T12:37:31.245Z,453
2022-09-15T12:39:14.960Z,474
2022-09-15T12:40:58.642Z,505
2022-09-15T12:42:42.390Z,530
2022-09-15T12:44:26.049Z,557
2022-09-15T12:46:09.782Z,620
2022-09-15T12:47:53.510Z,744
2022-09-15T12:49:37.149Z,744
2022-09-15T12:51:20.860Z,744
2022-09-15T12:53:04.583Z,745
2022-09-15T12:54:48.335Z,744
2022-09-15T12:56:31.983Z,744
2022-09-15T12:58:15.735Z,744
2022-09-15T12:59:59.373Z,745
2022-09-15T13:01:43.080Z,744
2022-09-15T13:03:26.831Z,744
2022-09-15T13:05:10.613Z,745
2022-09-15T13:06:54.249Z,744
2022-09-15T13:08:37.868Z,744
2022-09-15T13:10:21.608Z,743
2022-09-15T13:12:05.296Z,744
2022-09-15T13:13:49.056Z,744
2022-09-15T13:15:32.819Z,744
2022-09-15T13:17:16.485Z,743
2022-09-15T13:19:00.077Z,745
2022-09-15T13:20:43.826Z,744
2022-09-15T13:22:27.498Z,745
2022-09-15T13:24:11.191Z,745
2022-09-15T13:25:54.936Z,744
2022-09-15T13:27:38.629Z,744
2022-09-15T13:29:22.293Z,744
2022-09-15T13:31:06.021Z,745
2022-09-15T13:32:49.709Z,745
2022-09-15T13:34:33.400Z,744
2022-09-15T13:36:17.144Z,734
2022-09-15T13:38:00.807Z,744
2022-09-15T13:39:44.545Z,744
2022-09-15T13:41:28.229Z,744
2022-09-15T13:43:11.910Z,744
2022-09-15T13:44:55.612Z,745
2022-09-15T13:46:39.372Z,744
2022-09-15T13:48:23.071Z,744
2022-09-15T13:50:06.798Z,744
2022-09-15T13:51:50.462Z,745
2022-09-15T13:53:34.177Z,744
2022-09-15T13:55:17.841Z,736
2022-09-15T13:57:01.550Z,745
2022-09-15T13:58:45.225Z,745
2022-09-15T14:00:28.930Z,745
2022-09-15T14:02:12.657Z,744
2022-09-15T14:03:56.367Z,745
2022-09-15T14:05:40.064Z,745
2022-09-15T14:07:23.818Z,744
2022-09-15T14:09:07.431Z,744
2022-09-15T14:10:51.119Z,745
2022-09-15T14:12:34.895Z,745
2022-09-15T14:14:18.521Z,744
2022-09-15T14:17:45.959Z,745
2022-09-15T14:19:29.621Z,745
2022-09-15T14:21:13.333Z,745
2022-09-15T14:22:57.063Z,745
2022-09-15T14:24:40.730Z,745
2022-09-15T14:26:24.515Z,744
2022-09-15T14:28:08.199Z,735
2022-09-15T14:29:51.935Z,745
2022-09-15T14:31:35.566Z,746
2022-09-15T14:33:19.234Z,744
2022-09-15T14:35:03.016Z,744
2022-09-15T14:36:46.643Z,745
2022-09-15T14:38:30.436Z,744
2022-09-15T14:40:14.193Z,745
2022-09-15T14:41:57.874Z,745
2022-09-15T14:43:41.594Z,745
2022-09-15T14:45:25.251Z,745
2022-09-15T14:47:08.909Z,744
2022-09-15T14:48:52.550Z,744
2022-09-15T14:50:36.389Z,745
2022-09-15T14:52:20.091Z,745
2022-09-15T14:54:03.771Z,745
2022-09-15T14:55:47.386Z,745
2022-09-15T14:57:31.064Z,745
2022-09-15T14:59:14.844Z,745
2022-09-15T15:00:58.536Z,744
2022-09-15T15:02:42.177Z,746
2022-09-15T15:04:26.077Z,745
2022-09-15T15:06:09.578Z,745
2022-09-15T15:07:53.430Z,745
2022-09-15T15:09:37.103Z,746
2022-09-15T15:11:20.819Z,746
2022-09-15T15:13:04.427Z,745
2022-09-15T15:14:48.171Z,745
2022-09-15T15:16:31.929Z,745
2022-09-15T15:18:15.499Z,744
2022-09-15T15:19:59.301Z,738
2022-09-15T15:21:43.029Z,746
2022-09-15T15:23:26.587Z,746
2022-09-15T15:25:10.393Z,745
2022-09-15T15:26:54.058Z,745
2022-09-15T15:28:37.793Z,745
2022-09-15T15:30:21.400Z,745
2022-09-15T15:32:05.094Z,745
2022-09-15T15:33:48.804Z,745
2022-09-15T15:35:32.579Z,745
2022-09-15T15:37:16.217Z,744
2022-09-15T15:38:59.952Z,742
2022-09-15T15:40:43.610Z,745
2022-09-15T15:42:27.376Z,746
2022-09-15T15:44:11.016Z,744
2022-09-15T15:45:54.844Z,745
2022-09-15T15:47:38.558Z,745
2022-09-15T15:49:22.203Z,745
2022-09-15T15:51:05.824Z,744
2022-09-15T15:52:49.673Z,745
2022-09-15T15:54:33.220Z,746
2022-09-15T15:56:16.947Z,746
2022-09-15T15:58:00.711Z,745
2022-09-15T15:59:44.331Z,745
2022-09-15T16:01:28.115Z,745
2022-09-15T16:03:11.768Z,745
2022-09-15T16:04:55.477Z,745
2022-09-15T16:06:39.168Z,745
2022-09-15T16:08:22.888Z,745
2022-09-15T16:10:06.549Z,745
2022-09-15T16:11:50.251Z,743
2022-09-15T16:13:34.020Z,746
2022-09-15T16:15:17.689Z,745
2022-09-15T16:17:01.351Z,745
2022-09-15T16:18:45.056Z,745
2022-09-15T16:20:28.763Z,746
2022-09-15T16:22:12.448Z,745
2022-09-15T16:23:56.183Z,745
2022-09-15T16:25:39.859Z,735
2022-09-15T16:27:23.555Z,746
2022-09-15T16:29:07.317Z,745
2022-09-15T16:30:50.959Z,745
2022-09-15T16:32:34.662Z,745
2022-09-15T16:34:18.364Z,745
2022-09-15T16:36:02.059Z,742
2022-09-15T16:37:45.763Z,714
2022-09-15T16:39:29.465Z,708
2022-09-15T16:41:13.159Z,744
2022-09-15T16:42:56.870Z,743
2022-09-15T16:44:40.567Z,521
2022-09-15T16:46:24.271Z,468
2022-09-15T16:48:07.973Z,483
2022-09-15T16:49:51.673Z,665
2022-09-15T16:51:35.378Z,371
2022-09-15T16:53:19.088Z,236
2022-09-15T16:55:02.774Z,199
2022-09-15T16:56:46.477Z,166
2022-09-15T16:58:30.185Z,143
2022-09-15T17:00:13.883Z,120
2022-09-15T17:01:57.583Z,101
2022-09-15T17:03:41.284Z,86
2022-09-15T17:05:24.990Z,76
2022-09-15T17:07:08.689Z,68
2022-09-15T17:08:52.388Z,60
2022-09-15T17:10:36.089Z,54
2022-09-15T17:12:19.794Z,45
2022-09-15T17:14:03.482Z,39
2022-09-15T17:15:47.196Z,34
2022-09-15T17:17:30.901Z,31
2022-09-15T17:19:14.601Z,28
2022-09-15T17:20:58.301Z,25
2022-09-15T17:22:41.996Z,23
2022-09-15T17:24:25.771Z,23
2022-09-15T17:26:09.408Z,25
2022-09-15T17:27:53.101Z,30
2022-09-15T17:29:36.814Z,31
2022-09-15T17:31:20.512Z,26
2022-09-15T17:33:04.212Z,20
2022-09-15T17:34:47.951Z,17
2022-09-15T17:36:31.608Z,13
2022-09-15T17:38:15.314Z,11
2022-09-15T17:39:59.016Z,10
2022-09-15T17:41:42.713Z,7
2022-09-15T17:43:26.421Z,6
2022-09-15T17:45:10.131Z,5
2022-09-15T17:46:53.817Z,4
2022-09-15T17:48:37.524Z,3
2022-09-15T17:50:21.236Z,2
2022-09-15T17:52:04.941Z,3
2022-09-15T17:53:48.633Z,2
2022-09-15T17:55:32.350Z,2
2022-09-15T17:57:16.035Z,2
2022-09-15T17:58:59.765Z,1
2022-09-15T18:00:43.448Z,2
2022-09-15T18:02:27.146Z,2
2022-09-15T18:04:10.841Z,1
2022-09-15T18:05:54.532Z,1
2022-09-15T18:07:38.239Z,1
2022-09-15T18:09:21.942Z,0
2022-09-15T18:11:05.644Z,1
2022-09-15T18:12:49.349Z,1
2022-09-15T18:14:33.034Z,1
2022-09-15T18:16:16.754Z,1
2022-09-15T18:18:00.451Z,1
2022-09-15T18:19:44.145Z,1
2022-09-15T18:21:27.847Z,0
2022-09-15T18:23:11.555Z,1
2022-09-15T18:24:55.258Z,1
2022-09-15T18:26:38.962Z,2
2022-09-15T18:28:22.654Z,1
2022-09-15T18:30:06.372Z,1
2022-09-15T18:31:50.080Z,1
2022-09-15T18:33:33.757Z,1
2022-09-15T18:35:17.468Z,0
2022-09-15T18:37:01.163Z,0
2022-09-15T18:38:44.863Z,1
2022-09-15T18:40:28.567Z,1
2022-09-15T18:42:12.272Z,1
2022-09-15T18:43:55.964Z,0
2022-09-15T18:45:39.673Z,1
2022-09-15T18:47:23.371Z,0
2022-09-15T18:49:07.078Z,1
2022-09-15T18:50:50.782Z,2
2022-09-15T18:52:34.477Z,2
2022-09-15T18:54:18.187Z,1
2022-09-15T18:56:01.911Z,1
2022-09-15T18:57:45.574Z,1
2022-09-15T18:59:29.278Z,2
2022-09-15T19:01:12.998Z,1
2022-09-15T19:02:56.686Z,1
2022-09-15T19:04:40.390Z,0
2022-09-15T19:06:24.087Z,1
2022-09-15T19:08:07.789Z,1
2022-09-15T19:09:51.497Z,1
2022-09-15T19:11:35.188Z,1
2022-09-15T19:13:18.891Z,2
2022-09-15T19:15:02.623Z,0
2022-09-15T19:16:46.290Z,0
2022-09-15T19:18:29.997Z,1
2022-09-15T19:20:13.704Z,1
2022-09-15T19:21:57.416Z,2
2022-09-15T19:23:41.098Z,1
2022-09-15T19:25:24.816Z,1
2022-09-15T19:27:08.499Z,1
2022-09-15T19:28:52.206Z,1
2022-09-15T19:30:35.903Z,1
2022-09-15T19:32:19.604Z,1
2022-09-15T19:34:03.309Z,1
2022-09-15T19:35:47.008Z,1
2022-09-15T19:37:30.715Z,2
2022-09-15T19:39:14.411Z,0
2022-09-15T19:40:58.120Z,1
2022-09-15T19:42:41.817Z,1
2022-09-15T19:44:25.649Z,1
2022-09-15T19:46:09.327Z,2
2022-09-15T19:47:53.053Z,1
2022-09-15T19:49:36.751Z,0
2022-09-15T19:51:20.404Z,1
2022-09-15T19:53:04.138Z,1
2022-09-15T19:54:47.782Z,0
2022-09-15T19:56:31.569Z,0
2022-09-15T19:58:15.120Z,0
2022-09-15T19:59:58.967Z,1
2022-09-15T20:01:42.661Z,1
2022-09-15T20:03:26.320Z,1
2022-09-15T20:05:09.997Z,0
2022-09-15T20:06:53.762Z,0
2022-09-15T20:08:37.380Z,2
2022-09-15T20:10:21.045Z,1
2022-09-15T20:12:04.780Z,1
2022-09-15T20:13:48.433Z,1
2022-09-15T20:15:32.137Z,2
2022-09-15T20:17:15.833Z,0
2022-09-15T20:18:59.533Z,1
2022-09-15T20:20:43.234Z,1
2022-09-15T20:22:26.939Z,1
2022-09-15T20:24:10.644Z,2
2022-09-15T20:25:54.344Z,0
2022-09-15T20:27:38.048Z,0
2022-09-15T20:29:21.751Z,0
2022-09-15T20:31:05.446Z,1
2022-09-15T20:32:49.162Z,1
2022-09-15T20:34:32.854Z,1
2022-09-15T20:36:16.555Z,1
2022-09-15T20:38:00.271Z,1
2022-09-15T20:39:43.971Z,1
2022-09-15T20:41:27.661Z,1
2022-09-15T20:43:11.361Z,1
2022-09-15T20:44:55.056Z,1
2022-09-15T20:46:38.765Z,1
2022-09-15T20:48:22.468Z,1
2022-09-15T20:50:06.164Z,1
2022-09-15T20:51:49.873Z,1
2022-09-15T20:53:33.563Z,1
2022-09-15T20:55:17.264Z,1
2022-09-15T20:57:00.968Z,0
2022-09-15T20:58:44.667Z,1
2022-09-15T21:00:28.369Z,2
2022-09-15T21:02:12.083Z,1
2022-09-15T21:03:55.773Z,1
2022-09-15T21:05:39.479Z,1
2022-09-15T21:07:23.193Z,1
2022-09-15T21:09:06.872Z,1
2022-09-15T21:10:50.579Z,1
2022-09-15T21:12:34.273Z,1
2022-09-15T21:14:17.983Z,1
2022-09-15T21:16:01.681Z,1
2022-09-15T21:17:45.385Z,1
2022-09-15T21:19:29.083Z,0
2022-09-15T21:21:12.782Z,1
2022-09-15T21:22:56.486Z,1
2022-09-15T21:24:40.189Z,1
2022-09-15T21:26:23.883Z,2
2022-09-15T21:28:07.592Z,0
2022-09-15T21:29:51.298Z,0
2022-09-15T21:31:34.990Z,0
2022-09-15T21:33:18.694Z,1
2022-09-15T21:35:02.429Z,1
2022-09-15T21:36:46.093Z,8
2022-09-15T21:38:29.802Z,21
2022-09-15T21:40:13.499Z,22
2022-09-15T21:41:57.267Z,21
2022-09-15T21:43:40.928Z,21
2022-09-15T21:45:24.602Z,21
2022-09-15T21:47:08.307Z,22
2022-09-15T21:48:52.014Z,21
2022-09-15T21:50:35.705Z,1
2022-09-15T21:52:19.413Z,1
2022-09-15T21:54:03.123Z,1
2022-09-15T21:55:46.816Z,0
2022-09-15T21:57:30.515Z,1
2022-09-15T21:59:14.214Z,2
2022-09-15T22:00:57.922Z,1
2022-09-15T22:02:41.633Z,1
2022-09-15T22:04:25.344Z,1
2022-09-15T22:06:09.067Z,1
2022-09-15T22:07:52.728Z,0
2022-09-15T22:09:36.431Z,1
2022-09-15T22:11:20.145Z,1
2022-09-15T22:13:03.836Z,1
2022-09-15T22:14:47.558Z,1
2022-09-15T22:16:31.242Z,1
2022-09-15T22:18:14.931Z,1
2022-09-15T22:19:58.642Z,1
2022-09-15T22:21:42.345Z,1
2022-09-15T22:23:26.042Z,1
2022-09-15T22:25:09.775Z,0
2022-09-15T22:26:53.450Z,1
2022-09-15T22:28:37.165Z,0
2022-09-15T22:30:20.907Z,1
2022-09-15T22:32:04.548Z,1
2022-09-15T22:33:48.250Z,1
2022-09-15T22:35:31.953Z,1
2022-09-15T22:37:15.682Z,0
2022-09-15T22:38:59.355Z,1
2022-09-15T22:40:43.065Z,1
2022-09-15T22:42:26.746Z,1
2022-09-15T22:44:10.460Z,1
2022-09-15T22:45:54.163Z,1
2022-09-15T22:47:37.863Z,1
2022-09-15T22:49:21.568Z,1
2022-09-15T22:51:05.267Z,1
2022-09-15T22:52:48.981Z,1
2022-09-15T22:54:32.682Z,0
2022-09-15T22:56:16.373Z,1
2022-09-15T22:58:00.076Z,1
2022-09-15T22:59:43.780Z,0
2022-09-15T23:01:27.488Z,1
2022-09-15T23:03:11.187Z,1
2022-09-15T23:04:54.883Z,1
2022-09-15T23:06:38.589Z,0
2022-09-15T23:08:22.295Z,0
2022-09-15T23:10:06.012Z,1
2022-09-15T23:11:49.687Z,0
2022-09-15T23:13:33.395Z,1
2022-09-15T23:15:17.088Z,1
2022-09-15T23:17:00.794Z,0
2022-09-15T23:18:44.498Z,0
2022-09-15T23:20:28.202Z,0
2022-09-15T23:22:11.906Z,1
2022-09-15T23:23:55.605Z,1
2022-09-15T23:25:39.307Z,1
2022-09-15T23:27:23.007Z,0
2022-09-15T23:29:06.705Z,0
2022-09-15T23:30:50.413Z,1
2022-09-15T23:32:34.116Z,1
2022-09-15T23:34:17.815Z,1
2022-09-15T23:36:01.532Z,1
2022-09-15T23:37:45.216Z,1
2022-09-15T23:39:28.922Z,1
2022-09-15T23:41:12.628Z,0
2022-09-15T23:42:56.327Z,0
2022-09-15T23:44:40.028Z,0
2022-09-15T23:46:23.745Z,1
2022-09-15T23:48:07.431Z,1
2022-09-15T23:49:51.154Z,0
2022-09-15T23:51:34.837Z,1
2022-09-15T23:53:18.543Z,1
2022-09-15T23:55:02.253Z,1
2022-09-15T23:56:45.944Z,1
2022-09-15T23:58:29.648Z,0
